Time;durP1;ratioP1;P1;durP2;ratioP2;P2;SDS_P1;SDS_P2;PMS_P1;PMS_P2;Temp;Humidity;BMP_temperature;BMP_pressure;BME280_temperature;BME280_humidity;BME280_pressure;Samples;Min_cycle;Max_cycle;Signal;HPM_P1;HPM_P2
2022/12/02 00:01:17;;;;;;;29.75;15.93;;;;;;;3.66;77.64;92782.91;2068059;69;20537;-75
2022/12/02 00:03:43;;;;;;;32.85;16.35;;;;;;;3.72;77.35;92789.00;2067819;69;20178;-78
2022/12/02 00:06:19;;;;;;;35.78;16.73;;;;;;;3.57;77.56;92780.72;2068024;69;20145;-76
2022/12/02 00:08:44;;;;;;;31.92;15.80;;;;;;;3.58;77.45;92773.84;2067325;69;20140;-77
2022/12/02 00:11:27;;;;;;;32.55;16.67;;;;;;;3.77;77.00;92779.69;2068069;69;20620;-76
2022/12/02 00:13:55;;;;;;;30.10;15.73;;;;;;;3.75;76.74;92779.50;2067929;69;20188;-83
2022/12/02 00:16:23;;;;;;;34.70;16.70;;;;;;;3.68;77.21;92768.44;2067920;69;20149;-79
2022/12/02 00:18:50;;;;;;;33.60;16.65;;;;;;;3.66;76.88;92771.75;2067829;69;20236;-77
2022/12/02 00:21:15;;;;;;;34.20;16.65;;;;;;;3.69;76.72;92767.84;2064428;69;20160;-76
2022/12/02 00:23:41;;;;;;;34.97;16.17;;;;;;;3.69;77.11;92772.69;2067888;69;20147;-76
2022/12/02 00:26:07;;;;;;;34.40;16.67;;;;;;;3.65;77.43;92764.72;2067825;69;20237;-76
2022/12/02 00:28:34;;;;;;;36.38;17.63;;;;;;;3.30;78.54;92769.34;2067827;69;20164;-77
2022/12/02 00:31:00;;;;;;;35.75;17.65;;;;;;;3.20;79.22;92779.56;2064586;69;20685;-78
2022/12/02 00:33:26;;;;;;;32.38;16.90;;;;;;;3.30;79.23;92761.72;2067639;69;20137;-76
2022/12/02 00:35:55;;;;;;;32.22;17.30;;;;;;;3.46;78.52;92770.00;2064500;69;20521;-76
2022/12/02 00:38:20;;;;;;;38.95;16.80;;;;;;;3.48;78.21;92770.16;2067836;69;20180;-76
2022/12/02 00:40:47;;;;;;;35.47;17.10;;;;;;;3.53;77.65;92756.06;2064452;69;20182;-77
2022/12/02 00:48:48;;;;;;;35.38;16.65;;;;;;;3.51;77.70;92750.31;2064445;69;20226;-77
2022/12/02 00:51:14;;;;;;;33.47;16.48;;;;;;;3.53;77.59;92755.31;2067934;69;20601;-77
2022/12/02 00:53:40;;;;;;;33.25;16.85;;;;;;;3.56;77.63;92752.13;2067959;69;20534;-77
2022/12/02 00:56:05;;;;;;;32.75;16.90;;;;;;;3.58;77.04;92748.81;2064472;69;20144;-79
2022/12/02 00:58:31;;;;;;;31.50;16.75;;;;;;;3.43;77.64;92744.03;2069274;69;20561;-81
2022/12/02 01:00:57;;;;;;;35.60;17.27;;;;;;;3.41;78.10;92749.44;2066993;69;20136;-79
2022/12/02 01:03:22;;;;;;;33.35;16.75;;;;;;;3.46;78.15;92751.25;2063471;69;20311;-79
2022/12/02 01:05:51;;;;;;;38.05;16.92;;;;;;;3.46;78.18;92747.75;2071087;69;20250;-77
2022/12/02 01:08:18;;;;;;;32.83;16.65;;;;;;;3.42;78.54;92742.56;2071048;69;20591;-76
2022/12/02 01:10:44;;;;;;;31.70;16.90;;;;;;;3.13;79.57;92744.16;2070545;69;20230;-80
2022/12/02 01:13:12;;;;;;;33.22;16.40;;;;;;;3.31;79.63;92746.50;2067643;69;20295;-78
2022/12/02 01:15:38;;;;;;;38.53;16.77;;;;;;;3.50;78.37;92746.03;2067401;69;20156;-78
2022/12/02 01:18:03;;;;;;;36.63;17.50;;;;;;;3.44;78.18;92748.31;2070909;69;20545;-79
2022/12/02 01:20:29;;;;;;;37.70;17.88;;;;;;;3.43;78.51;92746.81;2067588;69;20154;-77
2022/12/02 01:22:55;;;;;;;34.65;17.50;;;;;;;3.29;79.47;92742.78;2070527;69;20133;-80
2022/12/02 01:25:20;;;;;;;38.08;18.10;;;;;;;3.25;79.85;92745.22;2071123;69;20610;-81
2022/12/02 01:27:46;;;;;;;37.22;18.30;;;;;;;3.21;80.20;92742.84;2071167;69;20269;-78
2022/12/02 01:30:12;;;;;;;35.33;17.80;;;;;;;3.36;79.36;92742.03;2071161;69;20178;-78
2022/12/02 01:32:37;;;;;;;35.55;18.10;;;;;;;3.25;79.58;92739.66;2070567;69;20209;-77
2022/12/02 01:35:03;;;;;;;36.60;19.35;;;;;;;3.18;80.19;92740.44;2071172;69;20256;-79
2022/12/02 01:37:30;;;;;;;41.33;19.65;;;;;;;3.24;79.66;92729.84;2070243;69;20608;-76
2022/12/02 01:39:56;;;;;;;39.50;18.67;;;;;;;3.34;79.39;92736.28;2070870;69;20172;-79
2022/12/02 01:42:22;;;;;;;38.55;18.38;;;;;;;3.42;79.19;92733.47;2071075;69;20242;-79
2022/12/02 01:44:48;;;;;;;37.85;18.45;;;;;;;3.38;78.76;92731.06;2070928;69;20137;-77
2022/12/02 01:47:14;;;;;;;42.05;19.85;;;;;;;3.30;79.43;92728.34;2070881;69;20231;-77
2022/12/02 01:49:51;;;;;;;44.17;19.63;;;;;;;3.30;78.97;92722.78;2070997;69;20144;-77
2022/12/02 01:52:17;;;;;;;36.53;18.98;;;;;;;3.42;78.66;92727.91;2071269;69;20626;-77
2022/12/02 01:54:43;;;;;;;39.55;19.08;;;;;;;3.43;78.30;92730.09;2067766;69;20522;-77
2022/12/02 01:57:14;;;;;;;40.47;19.35;;;;;;;3.46;78.45;92728.25;2067451;69;20587;-77
2022/12/02 01:59:41;;;;;;;39.20;18.52;;;;;;;3.42;78.64;92719.56;2067664;69;20152;-77
2022/12/02 02:02:34;;;;;;;36.15;18.13;;;;;;;3.20;79.27;92721.13;2067593;69;20586;-78
2022/12/02 02:05:04;;;;;;;41.80;19.10;;;;;;;3.21;79.28;92720.59;2067751;69;20497;-81
2022/12/02 02:07:31;;;;;;;37.92;18.83;;;;;;;3.33;79.09;92720.16;2067663;69;20163;-76
2022/12/02 02:09:57;;;;;;;40.00;19.55;;;;;;;3.22;79.23;92726.88;2071178;69;20144;-76
2022/12/02 02:12:24;;;;;;;42.25;19.33;;;;;;;3.15;79.89;92724.84;2070964;69;20160;-76
2022/12/02 02:14:55;;;;;;;41.67;19.30;;;;;;;3.15;79.68;92710.94;2067069;69;20197;-76
2022/12/02 02:17:23;;;;;;;45.47;19.38;;;;;;;3.22;79.24;92713.72;2067730;69;20214;-77
2022/12/02 02:19:49;;;;;;;44.15;20.35;;;;;;;3.14;79.48;92715.78;2071166;69;20483;-77
2022/12/02 02:22:37;;;;;;;35.85;18.30;;;;;;;3.25;79.09;92714.63;2067622;69;20140;-77
2022/12/02 02:25:13;;;;;;;40.38;19.50;;;;;;;3.24;79.44;92705.53;2067620;69;20171;-76
2022/12/02 02:27:40;;;;;;;40.28;19.05;;;;;;;3.26;78.98;92710.53;2066974;69;20224;-78
2022/12/02 02:30:06;;;;;;;40.03;20.08;;;;;;;3.36;78.59;92711.41;2067814;69;20137;-77
2022/12/02 02:32:33;;;;;;;41.55;19.98;;;;;;;3.28;78.83;92713.50;2068294;69;20156;-77
2022/12/02 02:34:59;;;;;;;41.38;19.00;;;;;;;3.35;78.50;92706.44;2067570;69;20148;-77
2022/12/02 02:37:25;;;;;;;40.67;19.15;;;;;;;3.23;79.00;92694.97;2067747;69;20199;-77
2022/12/02 02:39:51;;;;;;;38.05;17.65;;;;;;;3.20;78.79;92702.38;2067176;69;20144;-76
2022/12/02 02:42:17;;;;;;;38.45;19.30;;;;;;;3.21;79.08;92700.38;2067610;69;20235;-77
2022/12/02 02:44:43;;;;;;;37.80;18.33;;;;;;;3.25;78.69;92689.56;2068416;69;20591;-77
2022/12/02 02:47:09;;;;;;;43.00;20.15;;;;;;;3.39;78.42;92692.84;2067692;69;20145;-79
2022/12/02 02:49:35;;;;;;;38.97;18.98;;;;;;;3.40;78.06;92695.06;2067469;69;20141;-77
2022/12/02 02:52:00;;;;;;;40.70;18.90;;;;;;;3.39;78.04;92688.03;2067689;69;20222;-78
2022/12/02 02:54:26;;;;;;;37.92;19.45;;;;;;;3.08;79.93;92687.44;2068279;69;20544;-78
2022/12/02 02:56:54;;;;;;;44.25;20.70;;;;;;;2.88;80.75;92682.88;2067208;69;20259;-78
2022/12/02 02:59:20;;;;;;;38.47;19.00;;;;;;;3.11;80.12;92686.28;2067419;69;20155;-76
2022/12/02 03:01:49;;;;;;;42.90;19.58;;;;;;;3.13;79.68;92694.84;2067598;69;20591;-78
2022/12/02 03:04:18;;;;;;;41.30;19.75;;;;;;;3.20;79.45;92685.69;2067326;69;20191;-78
2022/12/02 03:06:45;;;;;;;41.72;19.50;;;;;;;3.27;78.98;92692.53;2067548;69;20129;-78
2022/12/02 03:09:18;;;;;;;45.63;19.88;;;;;;;3.28;78.82;92685.66;2067682;69;20278;-76
2022/12/02 03:11:46;;;;;;;47.67;20.05;;;;;;;3.24;79.05;92683.28;2069486;69;20168;-76
2022/12/02 03:14:13;;;;;;;43.05;20.80;;;;;;;3.04;79.60;92685.03;2069158;69;20176;-75
2022/12/02 03:16:39;;;;;;;45.45;21.42;;;;;;;3.01;80.03;92679.84;2067847;69;20167;-76
2022/12/02 03:19:05;;;;;;;46.88;20.88;;;;;;;2.98;80.48;92678.22;2067908;69;20156;-78
2022/12/02 03:21:32;;;;;;;41.97;19.40;;;;;;;3.16;79.38;92679.03;2067652;69;20140;-78
2022/12/02 03:24:00;;;;;;;43.10;20.30;;;;;;;2.87;80.11;92675.84;2068075;69;20184;-78
2022/12/02 03:26:27;;;;;;;42.83;20.38;;;;;;;3.00;80.35;92681.16;2067587;69;20270;-77
2022/12/02 03:28:55;;;;;;;40.80;19.80;;;;;;;2.86;80.86;92671.56;2064884;69;20262;-78
2022/12/02 03:31:22;;;;;;;43.97;20.27;;;;;;;2.84;81.30;92677.72;2064811;69;20160;-78
2022/12/02 03:33:49;;;;;;;45.10;19.92;;;;;;;2.87;80.78;92681.41;2064643;69;20275;-78
2022/12/02 03:36:15;;;;;;;38.80;18.80;;;;;;;2.78;81.12;92669.56;2064807;69;20153;-79
2022/12/02 03:38:41;;;;;;;46.67;20.58;;;;;;;2.82;81.09;92668.44;2064762;69;20153;-78
2022/12/02 03:41:08;;;;;;;43.10;19.35;;;;;;;2.99;80.19;92676.91;2064651;69;20149;-80
2022/12/02 03:43:34;;;;;;;45.50;20.13;;;;;;;2.96;80.29;92672.47;2064055;69;20209;-77
2022/12/02 03:46:01;;;;;;;46.20;22.08;;;;;;;2.86;80.78;92672.31;2064527;69;20517;-79
2022/12/02 03:48:27;;;;;;;49.72;21.55;;;;;;;2.64;81.51;92676.63;2064729;69;20220;-77
2022/12/02 03:50:55;;;;;;;45.17;21.17;;;;;;;2.36;82.48;92671.34;2064843;69;20501;-77
2022/12/02 03:53:21;;;;;;;48.90;22.60;;;;;;;2.63;81.75;92672.38;2064835;69;20144;-80
2022/12/02 03:55:47;;;;;;;47.20;21.30;;;;;;;2.73;81.25;92666.97;2064730;69;20241;-80
2022/12/02 03:58:13;;;;;;;45.17;21.60;;;;;;;2.59;81.50;92663.69;2064874;69;20258;-78
2022/12/02 04:00:39;;;;;;;46.90;20.80;;;;;;;2.70;81.12;92665.31;2061399;69;20160;-77
2022/12/02 04:03:05;;;;;;;42.63;20.00;;;;;;;2.82;80.60;92662.88;2064421;69;20137;-79
2022/12/02 04:05:31;;;;;;;46.55;21.27;;;;;;;2.81;79.78;92659.34;2064738;69;20137;-78
2022/12/02 04:07:57;;;;;;;44.88;20.25;;;;;;;2.78;79.99;92657.69;2064685;69;20302;-79
2022/12/02 04:10:23;;;;;;;44.20;20.48;;;;;;;2.84;80.08;92658.25;2064777;69;20168;-77
2022/12/02 04:12:48;;;;;;;43.20;20.73;;;;;;;2.84;80.04;92657.47;2065060;69;20149;-77
2022/12/02 04:15:14;;;;;;;44.17;20.77;;;;;;;2.78;79.96;92655.66;2064520;69;20580;-77
2022/12/02 04:17:40;;;;;;;40.97;19.95;;;;;;;2.90;79.93;92653.22;2064824;69;20585;-77
2022/12/02 04:20:07;;;;;;;43.75;21.08;;;;;;;2.94;79.33;92650.03;2064659;69;20149;-77
2022/12/02 04:22:32;;;;;;;44.53;20.70;;;;;;;2.97;79.10;92649.63;2064880;69;20189;-77
2022/12/02 04:24:59;;;;;;;42.33;21.15;;;;;;;3.01;78.86;92646.47;2065182;69;20152;-77
2022/12/02 04:27:25;;;;;;;43.90;20.48;;;;;;;3.12;78.42;92650.91;2064714;69;20168;-77
2022/12/02 04:29:51;;;;;;;42.20;20.75;;;;;;;3.14;78.24;92645.50;2064787;69;20141;-78
2022/12/02 04:32:17;;;;;;;43.90;20.75;;;;;;;3.04;78.48;92645.38;2064908;69;20263;-79
2022/12/02 04:34:42;;;;;;;47.13;20.25;;;;;;;3.05;78.30;92641.28;2064625;69;20164;-77
2022/12/02 04:37:08;;;;;;;45.85;22.15;;;;;;;3.05;78.20;92635.72;2064145;69;20141;-79
2022/12/02 04:39:34;;;;;;;46.95;22.20;;;;;;;2.84;78.78;92643.59;2064291;69;20129;-78
2022/12/02 04:42:00;;;;;;;48.00;22.02;;;;;;;2.78;79.56;92635.44;2064563;69;20152;-77
2022/12/02 04:44:26;;;;;;;43.20;21.35;;;;;;;2.96;79.05;92633.53;2064491;69;20169;-77
2022/12/02 04:46:52;;;;;;;43.90;21.48;;;;;;;2.61;79.75;92638.88;2064127;69;20155;-77
2022/12/02 04:49:18;;;;;;;44.60;20.73;;;;;;;2.65;80.52;92635.69;2064566;69;20191;-77
2022/12/02 04:51:44;;;;;;;44.03;21.45;;;;;;;2.48;80.87;92633.53;2064775;69;20137;-77
2022/12/02 04:54:10;;;;;;;48.15;21.90;;;;;;;2.70;80.10;92629.19;2064687;69;20208;-77
2022/12/02 04:56:36;;;;;;;44.97;21.35;;;;;;;2.85;79.57;92636.75;2064504;69;20600;-79
2022/12/02 04:59:01;;;;;;;47.92;22.30;;;;;;;2.85;79.45;92633.97;2064510;69;20175;-78
2022/12/02 05:01:27;;;;;;;47.03;22.17;;;;;;;2.91;79.03;92631.69;2064326;69;20184;-82
2022/12/02 05:03:52;;;;;;;45.10;21.33;;;;;;;2.90;79.23;92641.34;2063800;69;20171;-82
2022/12/02 05:06:18;;;;;;;46.40;21.48;;;;;;;2.98;78.64;92630.94;2064405;69;20133;-77
2022/12/02 05:08:44;;;;;;;47.28;21.88;;;;;;;2.77;79.52;92634.72;2064583;69;20144;-76
2022/12/02 05:11:10;;;;;;;43.55;21.13;;;;;;;2.58;80.15;92636.47;2063788;69;20256;-82
2022/12/02 05:13:35;;;;;;;47.10;21.60;;;;;;;2.64;80.25;92628.66;2064679;69;20141;-76
2022/12/02 05:16:02;;;;;;;44.95;20.67;;;;;;;2.72;79.58;92632.88;2064127;69;20631;-78
2022/12/02 05:18:37;;;;;;;45.88;21.70;;;;;;;2.87;79.37;92634.84;2064181;69;20560;-77
2022/12/02 05:21:05;;;;;;;45.55;20.80;;;;;;;2.99;78.35;92626.84;2063937;69;20759;-77
2022/12/02 05:23:31;;;;;;;47.03;21.73;;;;;;;2.98;78.82;92630.94;2064458;69;20161;-74
2022/12/02 05:25:58;;;;;;;46.80;21.42;;;;;;;3.02;78.45;92636.81;2063667;69;20137;-77
2022/12/02 05:28:29;;;;;;;43.75;20.95;;;;;;;3.06;78.33;92631.63;2064525;69;20453;-76
2022/12/02 05:30:54;;;;;;;45.20;20.98;;;;;;;2.93;78.49;92634.66;2064653;69;20149;-79
2022/12/02 05:33:20;;;;;;;47.17;22.23;;;;;;;2.67;79.55;92631.06;2063722;69;20468;-76
2022/12/02 05:35:46;;;;;;;50.72;23.58;;;;;;;2.70;80.08;92632.72;2064661;69;20468;-80
2022/12/02 05:38:12;;;;;;;48.60;24.15;;;;;;;2.71;79.94;92630.69;2064507;69;20228;-77
2022/12/02 05:40:38;;;;;;;53.90;23.75;;;;;;;2.51;80.51;92633.13;2064424;69;20497;-78
2022/12/02 05:43:19;;;;;;;45.45;22.17;;;;;;;2.69;79.83;92636.03;2064732;69;20224;-78
2022/12/02 05:45:45;;;;;;;45.78;22.02;;;;;;;2.70;79.26;92641.06;2064634;69;20157;-79
2022/12/02 05:48:14;;;;;;;46.75;22.33;;;;;;;2.85;78.63;92642.31;2064100;69;20164;-82
2022/12/02 05:50:41;;;;;;;43.38;20.50;;;;;;;2.74;78.88;92640.66;2064808;69;20146;-81
2022/12/02 05:53:20;;;;;;;41.65;20.58;;;;;;;2.80;78.68;92644.72;2064225;69;20640;-85
2022/12/02 05:55:46;;;;;;;44.42;21.02;;;;;;;2.85;78.14;92642.31;2064746;69;20595;-85
2022/12/02 05:58:13;;;;;;;48.30;20.70;;;;;;;2.85;78.13;92647.88;2064842;69;20141;-84
2022/12/02 06:00:38;;;;;;;45.05;20.40;;;;;;;2.72;78.51;92649.56;2064884;69;20157;-84
2022/12/02 06:03:13;;;;;;;41.22;19.45;;;;;;;2.73;78.74;92644.75;2064834;69;20180;-85
2022/12/02 06:05:42;;;;;;;44.83;19.92;;;;;;;2.73;78.65;92645.47;2067816;69;20149;-78
2022/12/02 06:08:30;;;;;;;38.30;19.35;;;;;;;2.76;79.04;92646.41;2068645;69;20214;-77
2022/12/02 06:11:00;;;;;;;41.85;19.63;;;;;;;2.85;78.79;92645.09;2065980;69;20603;-81
2022/12/02 06:13:29;;;;;;;42.53;19.27;;;;;;;2.82;78.64;92646.94;2065209;69;20161;-78
2022/12/02 06:15:57;;;;;;;38.92;18.77;;;;;;;2.89;78.48;92646.16;2064445;69;20144;-77
2022/12/02 06:18:28;;;;;;;40.00;19.92;;;;;;;2.84;78.47;92641.56;2064893;69;20169;-78
2022/12/02 06:20:59;;;;;;;42.65;19.70;;;;;;;2.86;78.17;92638.94;2064962;69;20232;-81
2022/12/02 06:23:28;;;;;;;43.92;19.20;;;;;;;2.77;78.21;92645.84;2064481;69;20153;-82
2022/12/02 06:25:54;;;;;;;38.90;19.65;;;;;;;2.86;78.79;92644.50;2065128;69;20148;-81
2022/12/02 06:28:25;;;;;;;42.28;19.98;;;;;;;2.89;78.24;92646.16;2065080;69;20265;-78
2022/12/02 06:31:20;;;;;;;41.28;18.35;;;;;;;2.80;78.49;92639.16;2064472;69;20164;-80
2022/12/02 06:33:48;;;;;;;46.58;20.13;;;;;;;2.76;78.98;92640.84;2060626;69;20555;-77
2022/12/02 06:36:24;;;;;;;39.65;18.98;;;;;;;2.38;79.53;92635.38;2065095;69;20148;-80
2022/12/02 06:38:57;;;;;;;45.53;19.80;;;;;;;2.47;79.93;92643.16;2064946;69;20592;-77
2022/12/02 06:41:24;;;;;;;41.30;19.27;;;;;;;2.62;79.28;92645.91;2064955;69;20539;-77
2022/12/02 06:46:54;;;;;;;48.35;21.02;;;;;;;2.80;78.80;92644.72;2065077;69;20274;-77
2022/12/02 06:49:21;;;;;;;63.85;27.77;;;;;;;2.73;78.61;92645.47;2064847;69;20273;-77
2022/12/02 06:51:54;;;;;;;62.38;26.48;;;;;;;2.84;78.32;92638.03;2064952;69;20184;-77
2022/12/02 06:54:31;;;;;;;51.35;23.95;;;;;;;2.80;78.35;92636.38;2064651;69;20184;-77
2022/12/02 06:57:00;;;;;;;45.40;21.40;;;;;;;2.86;78.21;92644.50;2065086;69;20152;-79
2022/12/02 06:59:26;;;;;;;41.00;20.42;;;;;;;2.87;77.86;92642.47;2064905;69;20303;-79
2022/12/02 07:01:56;;;;;;;44.55;21.48;;;;;;;2.90;78.31;92630.97;2064899;69;20224;-77
2022/12/02 07:04:46;;;;;;;46.40;21.90;;;;;;;2.90;78.28;92642.09;2064776;69;20571;-77
2022/12/02 07:07:18;;;;;;;44.25;20.45;;;;;;;2.89;78.20;92643.41;2064905;69;20224;-77
2022/12/02 07:09:46;;;;;;;55.67;27.33;;;;;;;2.89;78.11;92640.63;2064260;69;20173;-77
2022/12/02 07:12:22;;;;;;;59.25;28.13;;;;;;;2.98;78.11;92642.81;2064323;69;20236;-77
2022/12/02 07:14:49;;;;;;;69.72;31.08;;;;;;;2.88;78.56;92639.13;2064810;69;20153;-79
2022/12/02 07:17:24;;;;;;;62.97;31.23;;;;;;;2.99;78.11;92637.97;2064879;69;20603;-76
2022/12/02 07:20:28;;;;;;;58.42;27.10;;;;;;;3.01;78.08;92641.66;2064979;69;20492;-77
2022/12/02 07:22:58;;;;;;;54.67;26.02;;;;;;;3.06;78.04;92639.97;2064876;69;20165;-77
2022/12/02 07:25:33;;;;;;;123.65;43.53;;;;;;;2.91;78.13;92626.88;2064934;69;20278;-77
2022/12/02 07:28:04;;;;;;;110.05;40.03;;;;;;;2.94;78.21;92636.16;2064775;69;20210;-77
2022/12/02 07:30:33;;;;;;;102.03;36.88;;;;;;;2.76;79.51;92632.50;2064899;69;20584;-77
2022/12/02 07:33:00;;;;;;;79.60;32.38;;;;;;;2.91;78.76;92632.44;2064727;69;20137;-77
2022/12/02 07:35:26;;;;;;;75.70;31.80;;;;;;;3.06;78.47;92637.19;2064783;69;20179;-78
2022/12/02 07:37:51;;;;;;;76.90;32.42;;;;;;;2.96;78.77;92625.91;2064838;69;20147;-77
2022/12/02 07:40:18;;;;;;;72.20;33.28;;;;;;;3.14;78.50;92634.38;2064828;69;20152;-78
2022/12/02 07:42:44;;;;;;;75.95;33.20;;;;;;;3.21;77.97;92633.59;2065144;69;20287;-76
2022/12/02 07:45:14;;;;;;;59.67;29.00;;;;;;;3.36;77.59;92633.50;2065044;69;20228;-78
2022/12/02 07:47:40;;;;;;;64.82;30.38;;;;;;;3.45;77.02;92627.31;2064848;69;20145;-80
2022/12/02 07:50:07;;;;;;;63.28;30.20;;;;;;;3.39;77.78;92629.59;2064864;69;20215;-80
2022/12/02 07:52:33;;;;;;;56.33;27.52;;;;;;;3.40;77.37;92633.84;2064861;69;20153;-80
2022/12/02 07:55:00;;;;;;;54.55;24.70;;;;;;;3.38;76.78;92630.16;2065887;69;20477;-76
2022/12/02 07:57:25;;;;;;;51.33;24.88;;;;;;;3.42;76.97;92633.28;2066068;69;20159;-74
2022/12/02 07:59:51;;;;;;;52.63;25.15;;;;;;;3.04;77.96;92628.69;2065936;69;20145;-76
2022/12/02 08:02:16;;;;;;;48.65;23.40;;;;;;;2.80;78.50;92633.59;2065323;69;20157;-75
2022/12/02 08:04:42;;;;;;;48.45;23.20;;;;;;;2.95;78.82;92641.13;2065236;69;20249;-75
2022/12/02 08:07:08;;;;;;;44.67;21.90;;;;;;;3.34;77.79;92627.00;2064813;69;20216;-75
2022/12/02 08:09:33;;;;;;;47.42;21.42;;;;;;;3.30;77.34;92639.28;2064861;69;20172;-75
2022/12/02 08:11:59;;;;;;;40.22;20.75;;;;;;;3.19;77.68;92636.94;2064959;69;20161;-80
2022/12/02 08:14:26;;;;;;;48.17;21.00;;;;;;;3.02;78.14;92637.59;2064818;69;20560;-75
2022/12/02 08:16:51;;;;;;;41.13;20.60;;;;;;;3.16;77.99;92638.06;2064849;69;20234;-78
2022/12/02 08:19:17;;;;;;;42.75;21.58;;;;;;;3.15;77.75;92644.19;2064742;69;20153;-76
2022/12/02 08:21:43;;;;;;;44.13;22.13;;;;;;;3.03;78.13;92630.72;2064740;69;20160;-78
2022/12/02 08:24:08;;;;;;;42.13;20.73;;;;;;;3.06;78.45;92637.91;2064816;69;20612;-76
2022/12/02 08:26:34;;;;;;;42.78;20.67;;;;;;;3.23;78.07;92634.50;2064849;69;20153;-82
2022/12/02 08:29:00;;;;;;;47.22;20.75;;;;;;;2.98;78.00;92636.50;2064852;69;20141;-74
2022/12/02 08:31:26;;;;;;;44.80;20.95;;;;;;;2.94;78.23;92638.94;2064967;69;20157;-75
2022/12/02 08:33:52;;;;;;;38.00;19.27;;;;;;;3.35;76.80;92632.03;2064856;69;20169;-74
2022/12/02 08:36:19;;;;;;;40.65;17.30;;;;;;;3.30;76.55;92635.78;2064999;69;20160;-74
2022/12/02 08:38:45;;;;;;;30.13;15.98;;;;;;;3.36;75.90;92630.72;2065555;69;20153;-73
2022/12/02 08:41:12;;;;;;;37.33;17.20;;;;;;;3.69;75.51;92641.81;2064910;69;20145;-77
2022/12/02 08:43:38;;;;;;;31.73;15.50;;;;;;;3.76;74.58;92633.44;2064134;69;20619;-78
2022/12/02 08:46:05;;;;;;;26.70;13.32;;;;;;;3.61;73.76;92643.91;2064872;69;20180;-82
2022/12/02 08:48:31;;;;;;;28.95;14.00;;;;;;;3.53;73.24;92633.59;2064668;69;20228;-80
2022/12/02 08:50:57;;;;;;;29.25;14.40;;;;;;;3.61;73.56;92638.34;2064998;69;20145;-82
2022/12/02 08:53:24;;;;;;;32.80;14.82;;;;;;;3.35;74.00;92636.88;2064909;69;20157;-77
2022/12/02 08:55:50;;;;;;;27.92;14.68;;;;;;;3.78;73.56;92635.63;2064991;69;20240;-80
2022/12/02 08:58:15;;;;;;;27.23;13.43;;;;;;;3.60;72.18;92634.81;2064249;69;20252;-78
2022/12/02 09:00:41;;;;;;;25.77;13.52;;;;;;;3.69;72.66;92637.00;2064490;69;20580;-76
2022/12/02 09:03:07;;;;;;;26.92;14.10;;;;;;;3.74;71.92;92635.28;2064465;69;20218;-75
2022/12/02 09:05:36;;;;;;;26.25;13.00;;;;;;;3.91;71.64;92634.59;2064605;69;20164;-75
2022/12/02 09:08:02;;;;;;;22.15;11.57;;;;;;;3.67;71.53;92636.84;2064807;69;20164;-75
2022/12/02 09:10:28;;;;;;;24.67;11.48;;;;;;;3.79;70.93;92637.84;2064641;69;20216;-75
2022/12/02 09:12:54;;;;;;;19.23;10.43;;;;;;;3.69;70.24;92631.44;2064746;69;20574;-75
2022/12/02 09:15:20;;;;;;;24.05;12.32;;;;;;;3.54;70.31;92634.31;2064763;69;20156;-79
2022/12/02 09:17:47;;;;;;;25.52;13.13;;;;;;;3.58;70.71;92634.66;2064852;69;20493;-78
2022/12/02 09:20:12;;;;;;;26.92;12.65;;;;;;;3.85;69.92;92628.50;2067149;69;20164;-76
2022/12/02 09:22:39;;;;;;;25.45;12.98;;;;;;;3.99;69.84;92633.25;2066543;69;20137;-77
2022/12/02 09:25:05;;;;;;;26.80;13.38;;;;;;;4.22;70.43;92635.09;2065006;69;20145;-79
2022/12/02 09:27:31;;;;;;;25.10;13.57;;;;;;;4.22;70.37;92627.47;2064948;69;20223;-83
2022/12/02 09:29:57;;;;;;;29.23;14.00;;;;;;;3.95;69.34;92630.13;2067635;69;20220;-85
2022/12/02 09:32:23;;;;;;;25.73;13.95;;;;;;;4.20;69.77;92640.47;2068031;69;20164;-81
2022/12/02 09:34:49;;;;;;;26.88;13.77;;;;;;;4.23;69.22;92634.50;2068256;69;20509;-84
2022/12/02 09:37:14;;;;;;;26.90;13.85;;;;;;;4.39;69.48;92635.09;2069441;69;20571;-75
2022/12/02 09:39:41;;;;;;;27.83;13.35;;;;;;;4.46;69.64;92639.13;2071716;69;20144;-75
2022/12/02 09:42:08;;;;;;;29.73;15.43;;;;;;;4.39;69.20;92635.09;2071984;69;20171;-74
2022/12/02 09:44:35;;;;;;;25.95;13.32;;;;;;;4.43;69.57;92631.91;2071868;69;20168;-74
2022/12/02 09:47:01;;;;;;;23.60;12.88;;;;;;;4.48;69.30;92636.50;2070845;69;20630;-76
2022/12/02 09:49:27;;;;;;;24.55;13.98;;;;;;;3.98;69.56;92626.16;2069472;69;20612;-83
2022/12/02 09:51:58;;;;;;;29.08;13.52;;;;;;;4.08;70.09;92635.41;2068171;69;20125;-84
2022/12/02 09:54:23;;;;;;;24.38;13.65;;;;;;;4.17;69.50;92625.66;2068750;69;20167;-83
2022/12/02 09:56:50;;;;;;;24.38;13.95;;;;;;;4.21;69.31;92623.19;2068399;69;20168;-83
2022/12/02 09:59:16;;;;;;;20.92;10.80;;;;;;;4.10;68.75;92622.94;2068401;69;20640;-77
2022/12/02 10:01:46;;;;;;;17.40;9.82;;;;;;;4.14;68.71;92618.44;2068486;69;20148;-77
2022/12/02 10:04:32;;;;;;;17.50;9.63;;;;;;;4.13;68.29;92614.19;2068456;69;20140;-80
2022/12/02 10:06:58;;;;;;;17.25;9.38;;;;;;;3.97;69.02;92613.56;2067706;69;20148;-82
2022/12/02 10:09:29;;;;;;;18.25;9.80;;;;;;;4.40;68.91;92614.28;2068582;69;20180;-80
2022/12/02 10:11:55;;;;;;;21.02;10.32;;;;;;;4.48;68.42;92614.19;2068537;69;20591;-78
2022/12/02 10:14:21;;;;;;;18.63;10.30;;;;;;;3.93;69.29;92616.00;2068501;69;20136;-79
2022/12/02 10:16:47;;;;;;;18.88;9.25;;;;;;;4.24;68.23;92624.84;2067801;69;20567;-79
2022/12/02 10:19:19;;;;;;;43.75;25.27;;;;;;;4.54;68.39;92609.13;2068311;69;20215;-78
2022/12/02 10:21:44;;;;;;;21.52;12.05;;;;;;;4.56;68.72;92609.28;2068413;69;20467;-79
2022/12/02 10:24:12;;;;;;;18.92;10.05;;;;;;;4.27;68.01;92612.56;2068559;69;20552;-75
2022/12/02 10:26:42;;;;;;;20.48;10.73;;;;;;;4.09;69.57;92608.28;2068523;69;20148;-75
2022/12/02 10:29:13;;;;;;;24.10;9.82;;;;;;;4.64;69.02;92603.63;2065404;69;20156;-80
2022/12/02 10:31:52;;;;;;;19.10;9.70;;;;;;;4.33;69.42;92609.53;2065190;69;20145;-79
2022/12/02 10:34:21;;;;;;;20.58;9.10;;;;;;;4.59;69.13;92602.56;2065170;69;20149;-81
2022/12/02 10:36:47;;;;;;;17.08;9.25;;;;;;;4.55;69.11;92600.19;2065213;69;20156;-78
2022/12/02 10:39:25;;;;;;;18.75;9.77;;;;;;;4.75;68.78;92603.13;2065105;69;20140;-84
2022/12/02 10:42:12;;;;;;;18.80;10.48;;;;;;;4.78;69.55;92593.63;2064981;69;20312;-74
2022/12/02 10:44:44;;;;;;;40.35;22.45;;;;;;;4.71;68.64;92592.38;2064986;69;20218;-76
2022/12/02 10:47:22;;;;;;;28.80;15.30;;;;;;;4.60;68.28;92598.47;2064965;69;20232;-74
2022/12/02 10:49:55;;;;;;;17.85;10.80;;;;;;;4.55;67.12;92591.09;2064894;69;20146;-76
2022/12/02 10:52:38;;;;;;;19.98;11.93;;;;;;;4.41;67.76;92592.72;2064948;69;20137;-75
2022/12/02 10:55:04;;;;;;;16.83;9.57;;;;;;;4.66;68.16;92590.56;2065119;69;20508;-74
2022/12/02 10:57:32;;;;;;;19.70;9.70;;;;;;;4.30;68.36;92588.38;2065463;69;20257;-74
2022/12/02 11:00:04;;;;;;;16.73;9.50;;;;;;;4.56;69.09;92589.75;2064954;69;20155;-74
2022/12/02 11:02:34;;;;;;;18.70;10.47;;;;;;;4.46;68.48;92578.53;2064738;69;20584;-75
2022/12/02 11:05:13;;;;;;;19.42;10.60;;;;;;;4.20;68.51;92579.91;2064906;69;20160;-75
2022/12/02 11:07:39;;;;;;;13.50;8.73;;;;;;;4.31;68.63;92579.44;2065088;69;20176;-75
2022/12/02 11:10:05;;;;;;;15.77;9.18;;;;;;;4.63;68.61;92586.16;2064781;69;20596;-76
2022/12/02 11:12:34;;;;;;;28.55;16.95;;;;;;;4.76;68.64;92579.50;2061571;69;20228;-75
2022/12/02 11:15:03;;;;;;;26.55;16.15;;;;;;;4.66;68.85;92579.41;2064806;69;20209;-76
2022/12/02 11:17:50;;;;;;;20.85;12.30;;;;;;;4.47;68.99;92582.06;2064766;69;20174;-76
2022/12/02 11:20:32;;;;;;;16.08;9.73;;;;;;;4.54;69.91;92584.03;2064251;69;20509;-75
2022/12/02 11:22:58;;;;;;;32.95;22.85;;;;;;;4.51;69.83;92576.81;2064213;69;20172;-75
2022/12/02 11:25:42;;;;;;;36.05;17.52;;;;;;;4.21;71.17;92575.81;2064782;69;20251;-74
2022/12/02 11:28:18;;;;;;;18.10;10.43;;;;;;;3.86;70.66;92568.75;2065760;69;20163;-75
2022/12/02 11:30:45;;;;;;;17.98;9.45;;;;;;;4.17;70.06;92569.16;2068151;69;20168;-75
2022/12/02 11:33:32;;;;;;;18.42;10.07;;;;;;;4.38;70.17;92569.53;2068039;69;20144;-75
2022/12/02 11:36:09;;;;;;;25.05;10.02;;;;;;;4.74;69.50;92568.91;2068150;69;20153;-75
2022/12/02 11:38:50;;;;;;;15.27;9.82;;;;;;;4.49;69.32;92560.66;2068298;69;20147;-75
2022/12/02 11:41:17;;;;;;;26.17;14.60;;;;;;;4.65;69.03;92557.69;2068123;69;20152;-74